Time;durP1;ratioP1;P1;durP2;ratioP2;P2;SDS_P1;SDS_P2;PMS_P1;PMS_P2;Temp;Humidity;BMP_temperature;BMP_pressure;BME280_temperature;BME280_humidity;BME280_pressure;Samples;Min_cycle;Max_cycle;Signal;HPM_P1;HPM_P2
2021/05/31 00:02:26;;;;;;;2.12;2.02;;;;;;;13.68;70.14;99285.27;1730375;83;21165;-64
2021/05/31 00:04:52;;;;;;;2.33;1.85;;;;;;;13.56;70.33;99293.81;1726243;83;20991;-61
2021/05/31 00:07:19;;;;;;;1.90;1.80;;;;;;;13.46;70.52;99289.33;1730323;81;21003;-62
2021/05/31 00:09:47;;;;;;;4.70;2.12;;;;;;;13.41;70.71;99290.41;1730367;81;21007;-61
2021/05/31 00:12:16;;;;;;;2.12;1.90;;;;;;;13.36;70.84;99292.00;1730575;81;21011;-64
2021/05/31 00:14:44;;;;;;;2.08;1.98;;;;;;;13.36;70.84;99291.50;1728134;81;21058;-61
2021/05/31 00:17:11;;;;;;;2.67;2.40;;;;;;;13.34;70.78;99292.72;1730340;81;21565;-61
2021/05/31 00:19:40;;;;;;;2.35;2.17;;;;;;;13.29;70.82;99291.96;1730195;81;21102;-61
2021/05/31 00:22:06;;;;;;;2.47;2.10;;;;;;;13.25;70.96;99292.02;1730508;83;21015;-61
2021/05/31 00:24:33;;;;;;;2.47;2.27;;;;;;;13.22;70.84;99287.58;1728420;81;20948;-62
2021/05/31 00:27:00;;;;;;;2.33;2.12;;;;;;;13.14;71.11;99287.17;1730530;83;21101;-61
2021/05/31 00:29:26;;;;;;;4.58;2.40;;;;;;;13.09;71.33;99281.58;1730552;83;21027;-63
2021/05/31 00:31:55;;;;;;;4.92;2.02;;;;;;;13.06;71.46;99276.62;1711547;81;20999;-61
2021/05/31 00:34:24;;;;;;;4.70;2.65;;;;;;;13.06;71.50;99272.61;1728532;83;20903;-63
2021/05/31 00:36:52;;;;;;;2.00;1.90;;;;;;;13.04;71.54;99277.29;1730676;83;20947;-63
2021/05/31 00:39:20;;;;;;;2.80;2.45;;;;;;;13.04;71.54;99278.63;1730708;81;20979;-60
2021/05/31 00:41:49;;;;;;;2.42;2.22;;;;;;;13.03;71.55;99276.99;1725776;81;21031;-61
2021/05/31 00:44:17;;;;;;;3.17;2.10;;;;;;;13.06;71.60;99275.78;1726207;81;20908;-61
2021/05/31 00:46:43;;;;;;;3.08;2.33;;;;;;;13.08;71.53;99273.27;1730559;83;20943;-60
2021/05/31 00:49:10;;;;;;;2.67;2.47;;;;;;;13.13;71.53;99270.02;1730424;81;21623;-61
2021/05/31 00:51:36;;;;;;;2.70;2.50;;;;;;;13.16;71.37;99272.31;1730461;83;21015;-61
2021/05/31 00:54:03;;;;;;;2.87;2.35;;;;;;;13.11;71.00;99269.39;1728237;81;21584;-62
2021/05/31 00:56:30;;;;;;;4.20;3.10;;;;;;;13.09;70.74;99262.88;1730565;83;21019;-60
2021/05/31 00:58:56;;;;;;;7.10;2.72;;;;;;;13.03;70.77;99260.44;1730013;83;20959;-63
2021/05/31 01:01:23;;;;;;;12.03;2.87;;;;;;;13.06;70.46;99257.09;1730613;83;20943;-61
2021/05/31 01:03:50;;;;;;;4.42;3.37;;;;;;;13.03;70.53;99267.64;1728275;83;21153;-61
2021/05/31 01:06:19;;;;;;;3.50;3.20;;;;;;;13.02;70.63;99269.98;1730506;81;20949;-61
2021/05/31 01:09:12;;;;;;;4.45;3.20;;;;;;;13.01;70.67;99275.83;1730472;81;20939;-61
2021/05/31 01:12:24;;;;;;;4.90;3.20;;;;;;;13.01;70.53;99279.83;1711407;83;21526;-60
2021/05/31 01:14:56;;;;;;;5.17;3.27;;;;;;;12.98;70.38;99274.87;1728037;81;21011;-60
2021/05/31 01:17:39;;;;;;;3.77;3.47;;;;;;;12.87;70.67;99270.55;1672345;84;21124;-61
2021/05/31 01:20:23;;;;;;;3.83;3.30;;;;;;;12.84;70.67;99267.77;1661095;85;21001;-61
2021/05/31 01:22:50;;;;;;;3.80;3.40;;;;;;;12.81;70.68;99266.80;1722944;81;21007;-63
2021/05/31 01:25:56;;;;;;;5.08;3.37;;;;;;;12.79;70.67;99270.67;1720785;83;21569;-61
2021/05/31 01:28:47;;;;;;;4.33;3.80;;;;;;;12.74;70.66;99262.41;1690170;84;20966;-61
2021/05/31 01:31:16;;;;;;;3.80;3.50;;;;;;;12.69;70.77;99266.16;1662869;83;21165;-61
2021/05/31 01:33:42;;;;;;;7.85;3.05;;;;;;;12.62;70.85;99266.06;1680550;83;20954;-60
2021/05/31 01:36:11;;;;;;;6.20;4.33;;;;;;;12.57;70.92;99260.47;1690015;83;20989;-63
2021/05/31 01:38:38;;;;;;;5.97;3.95;;;;;;;12.55;70.96;99263.00;1690132;83;21041;-63
2021/05/31 01:41:06;;;;;;;5.92;3.50;;;;;;;12.51;70.95;99270.58;1688496;83;20942;-61
2021/05/31 01:43:32;;;;;;;6.12;4.12;;;;;;;12.48;71.02;99268.28;1688099;84;21936;-62
2021/05/31 01:46:00;;;;;;;4.55;4.15;;;;;;;12.41;71.02;99267.36;1689992;84;20997;-61
2021/05/31 01:48:29;;;;;;;8.03;4.05;;;;;;;12.35;71.14;99262.79;1690073;83;21021;-61
2021/05/31 01:50:58;;;;;;;3.80;3.50;;;;;;;12.30;71.38;99269.19;1670324;84;21011;-62
2021/05/31 01:53:25;;;;;;;4.28;3.87;;;;;;;12.28;71.36;99269.36;1689109;84;20914;-60
2021/05/31 01:55:52;;;;;;;5.42;4.30;;;;;;;12.21;71.48;99270.29;1669610;83;21178;-61
2021/05/31 01:58:18;;;;;;;7.33;3.98;;;;;;;12.15;71.61;99263.85;1689635;84;20997;-63
2021/05/31 02:00:45;;;;;;;7.97;4.92;;;;;;;12.09;71.79;99270.45;1678530;83;20890;-61
2021/05/31 02:03:11;;;;;;;7.42;4.37;;;;;;;12.03;71.92;99269.84;1671650;84;20985;-63
2021/05/31 02:05:38;;;;;;;5.58;4.03;;;;;;;12.02;71.92;99269.01;1672332;84;21073;-61
2021/05/31 02:08:06;;;;;;;5.45;4.25;;;;;;;12.04;71.91;99266.17;1672358;84;21503;-61
2021/05/31 02:10:33;;;;;;;7.37;4.00;;;;;;;12.04;71.93;99276.34;1677506;83;21061;-63
2021/05/31 02:13:03;;;;;;;4.53;4.17;;;;;;;12.08;71.91;99273.61;1674460;83;21573;-61
2021/05/31 02:15:55;;;;;;;5.67;4.40;;;;;;;12.11;71.84;99274.58;1674547;83;21067;-61
2021/05/31 02:18:32;;;;;;;4.90;4.50;;;;;;;12.14;71.74;99278.72;1681505;83;21009;-61
2021/05/31 02:21:07;;;;;;;6.53;5.90;;;;;;;12.12;71.69;99280.22;1646301;84;21543;-61
2021/05/31 02:23:39;;;;;;;5.25;4.75;;;;;;;12.15;71.59;99278.52;1681291;83;20970;-66
2021/05/31 02:26:09;;;;;;;4.87;4.47;;;;;;;12.18;71.40;99282.16;1671349;84;21045;-61
2021/05/31 02:28:35;;;;;;;8.50;5.15;;;;;;;12.19;71.38;99286.98;1716916;82;20996;-60
2021/05/31 02:31:02;;;;;;;9.25;5.10;;;;;;;12.19;71.23;99287.83;1692516;82;20898;-61
2021/05/31 02:33:29;;;;;;;6.15;4.78;;;;;;;12.19;71.21;99286.48;1704998;82;21696;-61
2021/05/31 02:35:55;;;;;;;9.55;5.08;;;;;;;12.21;71.20;99289.79;1715681;83;21000;-61
2021/05/31 02:38:21;;;;;;;9.95;4.95;;;;;;;12.15;71.33;99289.19;1717505;83;21075;-60
2021/05/31 02:40:48;;;;;;;14.63;4.80;;;;;;;12.12;71.40;99289.55;1717123;82;21667;-61
2021/05/31 02:43:14;;;;;;;8.70;5.08;;;;;;;12.13;71.31;99292.55;1717439;82;20940;-61
2021/05/31 02:45:42;;;;;;;5.67;4.62;;;;;;;12.12;71.35;99294.88;1711775;82;21011;-61
2021/05/31 02:48:09;;;;;;;5.75;4.20;;;;;;;12.12;71.28;99294.08;1689764;83;21678;-61
2021/05/31 02:50:36;;;;;;;5.67;4.78;;;;;;;12.12;71.28;99294.88;1690954;82;20908;-61
2021/05/31 02:53:03;;;;;;;8.33;4.53;;;;;;;12.16;71.24;99297.52;1691766;83;21494;-63
2021/05/31 02:55:30;;;;;;;5.92;4.80;;;;;;;12.15;71.13;99291.05;1692408;82;20984;-61
2021/05/31 02:57:58;;;;;;;4.70;4.30;;;;;;;12.11;71.14;99301.25;1708402;82;21093;-61
2021/05/31 03:00:26;;;;;;;6.42;5.00;;;;;;;12.11;71.20;99293.75;1713433;83;20992;-63
2021/05/31 03:02:53;;;;;;;5.28;4.78;;;;;;;12.13;71.11;99299.22;1709780;82;21474;-61
2021/05/31 03:05:22;;;;;;;4.37;3.98;;;;;;;12.12;71.18;99293.55;1715369;82;21022;-62
2021/05/31 03:07:48;;;;;;;8.78;4.85;;;;;;;12.15;71.08;99297.72;1711418;82;21043;-65
2021/05/31 03:10:15;;;;;;;8.10;4.90;;;;;;;12.19;71.08;99294.48;1704226;82;21065;-60
2021/05/31 03:12:42;;;;;;;4.87;4.33;;;;;;;12.31;70.90;99298.33;1700073;82;21035;-63
2021/05/31 03:15:10;;;;;;;9.48;4.85;;;;;;;12.34;70.63;99292.63;1696449;83;21099;-61
2021/05/31 03:17:37;;;;;;;7.75;4.92;;;;;;;12.38;70.54;99299.77;1713234;82;20952;-61
2021/05/31 03:20:07;;;;;;;10.05;4.78;;;;;;;12.42;70.34;99297.03;1710450;82;21031;-61
2021/05/31 03:22:34;;;;;;;6.53;5.08;;;;;;;12.50;70.20;99296.09;1710701;83;21082;-61
2021/05/31 03:25:01;;;;;;;8.58;5.17;;;;;;;12.56;70.07;99298.03;1703975;82;21062;-61
2021/05/31 03:27:28;;;;;;;8.68;4.50;;;;;;;12.63;69.85;99298.42;1703987;82;21055;-61
2021/05/31 03:29:54;;;;;;;6.12;4.75;;;;;;;12.74;69.65;99301.11;1711532;81;21063;-63
2021/05/31 03:32:21;;;;;;;4.92;4.53;;;;;;;12.84;69.59;99299.80;1701592;81;20967;-61
2021/05/31 03:34:47;;;;;;;6.87;4.72;;;;;;;12.99;69.07;99299.23;1722975;83;21653;-61
2021/05/31 03:37:14;;;;;;;7.28;4.75;;;;;;;13.08;68.70;99303.98;1720613;83;21589;-61
2021/05/31 03:39:42;;;;;;;6.28;4.33;;;;;;;13.11;68.33;99303.61;1722974;83;21068;-61
2021/05/31 03:42:08;;;;;;;5.87;4.62;;;;;;;13.16;68.25;99296.34;1702550;81;20984;-61
2021/05/31 03:44:35;;;;;;;4.53;4.12;;;;;;;13.26;68.09;99303.53;1722978;83;20988;-62
2021/05/31 03:47:03;;;;;;;8.33;4.78;;;;;;;13.42;67.80;99305.94;1720649;81;21109;-63
2021/05/31 03:49:29;;;;;;;4.87;4.47;;;;;;;13.54;67.42;99302.55;1722687;83;21103;-62
2021/05/31 03:51:57;;;;;;;6.20;4.72;;;;;;;13.64;66.98;99307.55;1722569;83;20984;-62
2021/05/31 03:54:24;;;;;;;5.60;4.22;;;;;;;13.67;66.51;99305.00;1711552;81;21546;-61
2021/05/31 03:56:50;;;;;;;6.35;3.58;;;;;;;13.69;66.30;99311.80;1710638;82;21047;-62
2021/05/31 03:59:18;;;;;;;7.05;4.08;;;;;;;13.82;66.17;99307.09;1720630;81;21121;-61
2021/05/31 04:01:46;;;;;;;11.78;4.35;;;;;;;14.10;66.02;99310.56;1717862;83;20940;-65
2021/05/31 04:04:13;;;;;;;4.47;4.00;;;;;;;14.65;65.13;99304.28;1714601;83;20868;-63
2021/05/31 04:12:01;;;;;;;15.32;4.35;;;;;;;16.89;59.03;99298.58;1720558;83;21290;-65
2021/05/31 04:14:28;;;;;;;4.92;3.58;;;;;;;17.72;56.59;99305.47;1718282;83;21054;-64
2021/05/31 04:16:55;;;;;;;8.60;3.55;;;;;;;18.48;54.60;99305.14;1722939;81;20872;-62
2021/05/31 04:19:25;;;;;;;10.95;3.00;;;;;;;19.20;52.22;99296.61;1720918;83;20971;-62
2021/05/31 04:21:53;;;;;;;4.35;3.50;;;;;;;19.88;50.35;99296.47;1703145;83;21008;-62
2021/05/31 04:24:20;;;;;;;9.98;3.40;;;;;;;20.46;49.02;99297.80;1721986;82;21112;-65
2021/05/31 04:26:47;;;;;;;5.75;3.83;;;;;;;20.97;47.51;99294.22;1711713;81;21462;-61
2021/05/31 04:29:15;;;;;;;9.85;3.52;;;;;;;21.42;46.17;99295.61;1690901;83;21010;-61
2021/05/31 04:31:42;;;;;;;6.08;3.70;;;;;;;21.77;45.11;99298.89;1676780;84;21563;-64
2021/05/31 04:34:10;;;;;;;5.83;3.60;;;;;;;22.27;44.06;99293.97;1673491;84;21587;-62
2021/05/31 04:36:36;;;;;;;7.95;3.37;;;;;;;22.73;42.27;99297.05;1673414;84;20959;-59
2021/05/31 04:39:05;;;;;;;5.08;3.17;;;;;;;23.05;41.92;99299.03;1669499;84;21552;-59
2021/05/31 04:41:33;;;;;;;7.95;3.52;;;;;;;23.65;40.33;99290.14;1669749;84;21026;-60
2021/05/31 04:43:59;;;;;;;8.40;3.90;;;;;;;23.95;38.71;99294.99;1676122;84;21058;-57
2021/05/31 04:46:26;;;;;;;5.10;3.35;;;;;;;23.84;37.93;99294.63;1679006;84;20978;-58
2021/05/31 04:48:54;;;;;;;8.63;4.17;;;;;;;23.71;38.71;99298.61;1674990;84;21830;-55
2021/05/31 04:51:22;;;;;;;13.98;3.95;;;;;;;23.65;38.31;99302.89;1675425;84;21606;-54
2021/05/31 04:53:49;;;;;;;6.12;3.40;;;;;;;23.64;38.69;99295.84;1676008;84;20928;-55
2021/05/31 04:56:16;;;;;;;6.40;3.60;;;;;;;23.91;38.50;99302.83;1677686;84;21090;-66
2021/05/31 04:58:43;;;;;;;5.47;4.58;;;;;;;24.29;37.90;99299.58;1681502;84;20923;-59
2021/05/31 05:01:11;;;;;;;6.10;4.50;;;;;;;24.66;37.13;99301.68;1685658;84;22222;-58
2021/05/31 05:03:38;;;;;;;8.13;3.70;;;;;;;25.28;36.42;99294.80;1671466;84;21046;-60
2021/05/31 05:06:04;;;;;;;4.90;3.85;;;;;;;25.28;36.42;99294.80;1681878;84;21600;-59
2021/05/31 05:08:31;;;;;;;8.90;4.20;;;;;;;25.84;35.20;99296.23;1681485;84;21027;-64
2021/05/31 05:10:58;;;;;;;5.95;3.77;;;;;;;26.15;34.53;99299.22;1674205;84;20987;-58
2021/05/31 05:13:24;;;;;;;7.47;3.45;;;;;;;26.27;34.38;99303.81;1680347;84;21706;-60
2021/05/31 05:15:52;;;;;;;3.47;3.17;;;;;;;26.42;33.46;99301.04;1673568;84;20955;-58
2021/05/31 05:18:19;;;;;;;8.33;3.62;;;;;;;26.59;33.67;99304.27;1686321;84;21522;-63
2021/05/31 05:20:46;;;;;;;24.65;3.90;;;;;;;27.10;33.29;99296.67;1677980;84;20892;-60
2021/05/31 05:23:12;;;;;;;6.33;3.65;;;;;;;27.66;32.33;99291.68;1685917;84;21059;-62
2021/05/31 05:25:40;;;;;;;6.10;2.95;;;;;;;28.09;31.40;99289.94;1674999;84;21099;-58
2021/05/31 05:28:06;;;;;;;4.72;3.30;;;;;;;28.24;30.22;99292.50;1691910;83;20951;-59
2021/05/31 05:30:33;;;;;;;7.85;3.70;;;;;;;28.21;30.71;99289.55;1715433;82;21007;-63
2021/05/31 05:33:00;;;;;;;4.67;3.50;;;;;;;28.47;30.03;99290.91;1713669;83;21095;-61
2021/05/31 05:35:34;;;;;;;5.97;3.55;;;;;;;28.36;30.29;99283.91;1711152;83;20940;-59
2021/05/31 05:46:04;;;;;;;6.33;3.50;;;;;;;27.39;30.69;99292.66;1698058;82;21024;-60
2021/05/31 05:48:29;;;;;;;5.37;2.72;;;;;;;27.16;31.02;99296.10;1716610;82;20968;-59
2021/05/31 05:51:06;;;;;;;9.55;3.20;;;;;;;26.79;31.95;99293.30;1709984;83;21028;-62
2021/05/31 05:53:39;;;;;;;7.20;2.90;;;;;;;26.89;31.71;99298.70;1714096;83;21019;-60
2021/05/31 05:56:08;;;;;;;7.95;3.12;;;;;;;27.21;31.05;99294.16;1711586;82;21521;-59
2021/05/31 05:58:35;;;;;;;7.37;2.62;;;;;;;27.41;30.73;99300.05;1715414;82;20984;-59
2021/05/31 06:01:03;;;;;;;6.75;3.00;;;;;;;27.46;30.34;99304.11;1710381;83;20972;-64
2021/05/31 06:03:30;;;;;;;9.88;2.67;;;;;;;27.52;30.17;99302.98;1689804;83;21129;-63
2021/05/31 06:05:57;;;;;;;7.35;2.60;;;;;;;27.28;30.25;99303.39;1688209;83;20996;-62
2021/05/31 06:08:24;;;;;;;9.83;3.02;;;;;;;27.03;30.15;99304.37;1688405;82;21062;-59
2021/05/31 06:10:50;;;;;;;4.08;2.65;;;;;;;26.68;30.57;99301.77;1688646;82;21088;-58
2021/05/31 06:13:17;;;;;;;5.85;2.80;;;;;;;26.43;30.89;99297.77;1688493;82;21603;-58
2021/05/31 06:15:44;;;;;;;6.90;3.05;;;;;;;26.27;31.42;99301.91;1688470;82;21767;-59
2021/05/31 06:18:10;;;;;;;6.30;2.50;;;;;;;26.27;31.30;99301.09;1711681;82;21036;-60
2021/05/31 06:20:37;;;;;;;6.58;3.30;;;;;;;26.03;31.57;99295.91;1716627;82;21620;-64
2021/05/31 06:23:05;;;;;;;8.38;2.58;;;;;;;25.98;31.25;99293.20;1712879;82;21031;-66
2021/05/31 06:25:32;;;;;;;10.53;2.83;;;;;;;25.93;31.69;99291.84;1714470;82;21576;-61
2021/05/31 06:28:05;;;;;;;4.17;2.15;;;;;;;26.05;31.37;99299.17;1706345;82;21044;-59
2021/05/31 06:30:28;;;;;;;5.03;2.95;;;;;;;26.23;31.33;99297.27;1712234;83;21035;-55
2021/05/31 06:32:55;;;;;;;5.97;2.30;;;;;;;26.45;31.21;99296.94;1716943;82;20916;-56
2021/05/31 06:35:23;;;;;;;5.92;2.17;;;;;;;26.51;29.43;99293.94;1710612;82;21134;-57
2021/05/31 06:37:50;;;;;;;2.90;2.17;;;;;;;26.06;30.00;99296.73;1715441;83;21024;-59
2021/05/31 06:40:16;;;;;;;4.28;1.70;;;;;;;25.95;29.95;99300.02;1712692;82;21092;-58
2021/05/31 06:42:45;;;;;;;6.47;1.82;;;;;;;25.78;30.01;99302.77;1711357;83;21542;-68
2021/05/31 06:45:16;;;;;;;6.80;2.45;;;;;;;25.89;29.98;99303.03;1714675;83;21754;-62
2021/05/31 06:47:42;;;;;;;7.22;2.12;;;;;;;25.95;30.47;99296.47;1713010;82;20992;-62
2021/05/31 06:50:11;;;;;;;6.35;1.90;;;;;;;26.04;30.31;99299.75;1715931;82;21616;-64
2021/05/31 06:52:37;;;;;;;7.53;1.90;;;;;;;26.16;29.81;99299.47;1709024;82;21750;-60
2021/05/31 06:55:06;;;;;;;4.50;2.35;;;;;;;26.14;29.76;99295.67;1703038;83;21115;-64
2021/05/31 06:57:33;;;;;;;3.45;1.98;;;;;;;26.24;30.18;99294.81;1688163;82;21015;-64
2021/05/31 07:00:00;;;;;;;4.67;2.08;;;;;;;25.99;29.26;99290.22;1670444;83;21683;-61
2021/05/31 07:02:26;;;;;;;6.08;1.70;;;;;;;25.74;29.98;99286.95;1688100;82;20920;-65
2021/05/31 07:04:52;;;;;;;7.30;1.80;;;;;;;25.40;29.71;99288.55;1688069;82;21087;-62
2021/05/31 07:07:20;;;;;;;8.68;1.57;;;;;;;25.40;29.39;99291.81;1688149;83;21391;-63
2021/05/31 07:09:48;;;;;;;8.53;1.87;;;;;;;25.11;29.30;99292.31;1688086;83;21047;-64
2021/05/31 07:12:16;;;;;;;2.95;1.40;;;;;;;24.82;29.11;99288.98;1688478;83;21158;-63
2021/05/31 07:14:45;;;;;;;5.15;1.92;;;;;;;24.60;30.18;99293.22;1688108;83;22320;-63
2021/05/31 07:17:15;;;;;;;4.90;2.25;;;;;;;24.54;29.82;99294.27;1687929;83;21175;-64
2021/05/31 07:19:44;;;;;;;2.12;1.30;;;;;;;24.11;29.77;99298.66;1687785;83;21090;-63
2021/05/31 07:22:16;;;;;;;4.80;1.30;;;;;;;24.02;30.78;99298.29;1688011;83;21079;-62
2021/05/31 07:24:42;;;;;;;2.10;1.30;;;;;;;24.29;30.96;99288.71;1687975;83;21076;-63
2021/05/31 07:27:09;;;;;;;5.53;1.60;;;;;;;24.68;30.69;99284.55;1688050;83;21003;-63
2021/05/31 07:29:37;;;;;;;8.05;1.92;;;;;;;25.02;29.91;99281.70;1687916;82;21704;-62
2021/05/31 07:32:05;;;;;;;3.67;1.70;;;;;;;25.16;29.99;99286.05;1687581;82;21665;-62
2021/05/31 07:34:33;;;;;;;4.85;1.42;;;;;;;25.25;29.47;99284.98;1690629;82;21011;-60
2021/05/31 07:37:00;;;;;;;4.00;1.50;;;;;;;25.13;29.85;99288.77;1687412;82;21047;-62
2021/05/31 07:39:26;;;;;;;6.53;1.40;;;;;;;25.00;29.95;99287.13;1688195;82;21122;-59
2021/05/31 07:41:53;;;;;;;2.30;1.15;;;;;;;24.90;30.53;99289.80;1689090;83;21052;-58
2021/05/31 07:44:19;;;;;;;4.00;1.40;;;;;;;24.79;29.67;99286.26;1696926;82;21416;-60
2021/05/31 07:46:46;;;;;;;2.42;1.10;;;;;;;24.70;29.12;99286.98;1702946;82;21166;-58
2021/05/31 07:49:12;;;;;;;4.33;1.10;;;;;;;24.28;29.25;99296.04;1699684;83;21016;-57
2021/05/31 07:51:44;;;;;;;3.30;1.40;;;;;;;23.86;29.95;99297.90;1692559;82;21082;-58
2021/05/31 07:54:12;;;;;;;5.28;1.20;;;;;;;23.37;30.50;99304.02;1702309;82;21044;-59
2021/05/31 07:56:38;;;;;;;6.42;1.45;;;;;;;22.97;30.73;99303.58;1700411;82;21043;-60
2021/05/31 07:59:05;;;;;;;4.20;1.42;;;;;;;22.55;30.85;99304.67;1704673;83;20956;-58
2021/05/31 08:01:33;;;;;;;5.83;1.32;;;;;;;22.10;31.61;99317.88;1697930;82;21616;-59
2021/05/31 08:04:02;;;;;;;5.87;1.20;;;;;;;22.09;32.65;99311.33;1688741;83;21594;-59
2021/05/31 08:06:29;;;;;;;5.58;1.67;;;;;;;22.53;32.82;99302.72;1700002;83;21071;-59
2021/05/31 08:08:56;;;;;;;2.05;1.52;;;;;;;22.96;32.06;99308.18;1697804;83;21493;-58
2021/05/31 08:11:22;;;;;;;2.02;1.45;;;;;;;23.11;31.13;99312.41;1697987;82;21004;-59
2021/05/31 08:13:51;;;;;;;2.95;1.10;;;;;;;23.10;31.16;99305.33;1702631;82;21094;-59
2021/05/31 08:16:18;;;;;;;5.37;1.20;;;;;;;23.17;30.70;99302.43;1713223;82;20975;-59
2021/05/31 08:18:46;;;;;;;5.65;1.50;;;;;;;23.24;30.87;99314.72;1711414;83;20940;-59
2021/05/31 08:21:12;;;;;;;2.50;1.72;;;;;;;23.64;31.29;99302.09;1706427;82;21636;-59
2021/05/31 08:23:39;;;;;;;5.25;1.42;;;;;;;24.22;30.86;99305.80;1706666;83;21099;-59
2021/05/31 08:26:05;;;;;;;4.60;1.32;;;;;;;24.52;30.11;99306.78;1697631;83;21099;-59
2021/05/31 08:28:32;;;;;;;2.25;1.30;;;;;;;24.61;29.79;99310.35;1689000;83;21501;-59
2021/05/31 08:31:00;;;;;;;2.77;1.07;;;;;;;24.36;29.39;99309.67;1703422;81;21232;-59
2021/05/31 08:33:27;;;;;;;4.10;1.00;;;;;;;23.90;29.82;99309.36;1714509;81;20983;-58
2021/05/31 08:35:54;;;;;;;1.85;1.27;;;;;;;23.52;29.68;99303.31;1722714;83;21589;-59
2021/05/31 08:38:20;;;;;;;2.77;1.12;;;;;;;23.26;29.46;99309.02;1704545;83;20987;-59
2021/05/31 08:40:48;;;;;;;5.80;1.07;;;;;;;23.01;29.14;99315.02;1721227;81;21614;-58
2021/05/31 08:43:15;;;;;;;3.17;1.20;;;;;;;22.92;29.24;99313.81;1722787;81;21839;-58
2021/05/31 08:45:42;;;;;;;3.15;0.98;;;;;;;22.80;29.06;99317.73;1722763;83;20940;-58
2021/05/31 08:48:10;;;;;;;4.05;1.07;;;;;;;22.53;29.69;99308.14;1722936;81;20995;-58
2021/05/31 08:50:38;;;;;;;3.37;1.05;;;;;;;22.20;30.72;99298.23;1722916;83;21050;-58
2021/05/31 08:53:05;;;;;;;2.58;0.90;;;;;;;22.36;31.23;99316.88;1723005;83;20964;-59
2021/05/31 08:55:33;;;;;;;2.15;1.00;;;;;;;22.99;30.56;99308.20;1722999;81;21874;-59
2021/05/31 08:57:59;;;;;;;2.77;0.88;;;;;;;23.58;28.86;99303.66;1743553;81;20967;-59
2021/05/31 09:00:30;;;;;;;2.25;1.10;;;;;;;24.17;28.30;99305.20;1722987;81;20940;-58
2021/05/31 09:03:02;;;;;;;3.33;1.00;;;;;;;24.43;27.10;99302.91;1722743;82;21085;-59
2021/05/31 09:05:41;;;;;;;3.72;1.00;;;;;;;24.29;26.10;99306.38;1722507;81;21043;-58
2021/05/31 09:08:15;;;;;;;3.92;1.10;;;;;;;23.94;26.76;99309.64;1722991;81;21092;-59
2021/05/31 09:10:52;;;;;;;3.67;1.35;;;;;;;23.63;27.41;99299.63;1722845;83;20948;-58
2021/05/31 09:13:32;;;;;;;6.75;1.20;;;;;;;23.33;27.79;99307.73;1703267;83;21478;-59
2021/05/31 09:16:16;;;;;;;3.52;1.10;;;;;;;23.17;28.31;99307.33;1722949;82;21644;-59
2021/05/31 09:18:52;;;;;;;2.55;1.12;;;;;;;23.04;28.86;99296.05;1723129;81;20948;-58
2021/05/31 09:21:29;;;;;;;3.92;1.25;;;;;;;23.00;29.01;99301.16;1722971;81;21221;-59
2021/05/31 09:24:08;;;;;;;4.55;1.07;;;;;;;22.88;29.40;99301.84;1722794;83;20904;-58
2021/05/31 09:26:50;;;;;;;1.37;0.70;;;;;;;22.74;29.98;99299.23;1722962;81;21572;-59
2021/05/31 09:29:18;;;;;;;4.42;1.30;;;;;;;22.64;29.55;99299.11;1715161;83;21549;-58
2021/05/31 09:31:45;;;;;;;2.60;1.00;;;;;;;22.60;29.93;99306.88;1672795;84;21568;-59
2021/05/31 09:34:13;;;;;;;1.40;1.02;;;;;;;22.29;28.30;99304.84;1692663;84;21093;-58
2021/05/31 09:36:53;;;;;;;4.05;1.10;;;;;;;21.95;28.99;99304.08;1692413;84;20994;-59
2021/05/31 09:39:39;;;;;;;1.40;1.02;;;;;;;21.86;29.51;99302.88;1692505;84;21588;-59
2021/05/31 09:42:15;;;;;;;1.45;1.30;;;;;;;21.99;29.73;99300.35;1692555;84;20982;-58
2021/05/31 09:44:44;;;;;;;2.67;1.10;;;;;;;22.27;29.91;99292.61;1692688;84;26849;-58
2021/05/31 09:47:11;;;;;;;2.95;1.12;;;;;;;22.57;29.71;99290.33;1692542;84;21707;-58
2021/05/31 09:49:38;;;;;;;1.92;1.07;;;;;;;22.80;29.00;99283.31;1692411;84;20979;-58
2021/05/31 09:52:10;;;;;;;2.58;1.10;;;;;;;23.03;28.39;99286.27;1692494;84;20875;-57
2021/05/31 09:54:44;;;;;;;1.80;0.90;;;;;;;23.24;28.51;99272.66;1692508;84;20990;-60
2021/05/31 09:57:20;;;;;;;1.92;1.77;;;;;;;23.42;28.61;99282.88;1692542;84;21014;-58
2021/05/31 09:59:52;;;;;;;4.30;1.20;;;;;;;23.52;27.71;99285.14;1692538;84;21100;-59
2021/05/31 10:02:23;;;;;;;2.22;1.07;;;;;;;23.58;27.04;99291.44;1692475;84;20955;-60
2021/05/31 10:04:58;;;;;;;3.67;1.10;;;;;;;23.29;25.79;99283.55;1692316;84;20903;-59
2021/05/31 10:09:44;;;;;;;2.50;0.90;;;;;;;22.50;27.73;99291.05;1692550;84;21488;-59
2021/05/31 10:12:11;;;;;;;2.80;0.80;;;;;;;22.37;27.69;99294.13;1692496;84;21150;-59
2021/05/31 10:14:38;;;;;;;6.85;0.98;;;;;;;22.30;27.99;99292.95;1692344;84;21063;-59
2021/05/31 10:17:04;;;;;;;1.90;0.90;;;;;;;22.26;27.57;99283.69;1666895;84;21441;-59
2021/05/31 10:19:31;;;;;;;1.80;1.15;;;;;;;22.19;28.15;99278.17;1664224;84;20944;-59
2021/05/31 10:21:57;;;;;;;3.22;1.60;;;;;;;22.20;26.55;99281.15;1692441;84;20880;-58
2021/05/31 10:24:24;;;;;;;3.08;1.55;;;;;;;22.36;27.10;99268.09;1692576;84;21042;-59
2021/05/31 10:26:50;;;;;;;2.92;1.35;;;;;;;22.58;27.53;99286.52;1692356;84;21030;-59
2021/05/31 10:29:17;;;;;;;3.60;1.20;;;;;;;22.76;27.99;99273.23;1692402;83;20948;-59
2021/05/31 10:31:44;;;;;;;4.35;1.27;;;;;;;22.92;28.06;99281.27;1672685;84;21588;-60
2021/05/31 10:34:20;;;;;;;2.30;0.88;;;;;;;22.94;27.84;99283.20;1690330;84;21109;-60
2021/05/31 10:36:50;;;;;;;;;;;;;;;22.86;27.70;99285.55;1679232;84;22522;-59
2021/05/31 10:39:26;;;;;;;2.65;1.20;;;;;;;22.72;27.99;99279.69;1672372;83;20162;-58
2021/05/31 10:42:07;;;;;;;1.50;0.93;;;;;;;22.61;28.06;99275.17;1641366;86;21072;-59
2021/05/31 10:44:34;;;;;;;11.50;1.50;;;;;;;22.42;28.16;99278.73;1688343;84;21542;-60
2021/05/31 10:47:12;;;;;;;8.35;1.40;;;;;;;22.39;28.33;99277.91;1684668;84;20960;-60
2021/05/31 10:49:39;;;;;;;1.72;1.27;;;;;;;22.42;28.67;99277.37;1684664;84;21176;-58
2021/05/31 10:52:06;;;;;;;1.82;1.30;;;;;;;22.41;27.88;99272.22;1688808;84;21487;-59
2021/05/31 10:54:36;;;;;;;1.72;1.00;;;;;;;22.39;26.42;99273.02;1650516;84;21046;-58
2021/05/31 10:57:08;;;;;;;3.67;0.93;;;;;;;22.40;26.40;99265.98;1691862;84;21047;-57
2021/05/31 10:59:49;;;;;;;2.12;0.90;;;;;;;22.51;26.69;99270.46;1685135;84;21627;-59
2021/05/31 11:02:27;;;;;;;4.28;1.02;;;;;;;22.57;26.20;99253.73;1688729;84;21695;-59
2021/05/31 11:05:06;;;;;;;4.90;1.20;;;;;;;22.58;26.51;99259.41;1689039;84;21058;-58
2021/05/31 11:07:33;;;;;;;4.17;1.25;;;;;;;22.52;26.73;99274.00;1688950;84;21584;-59
2021/05/31 11:09:59;;;;;;;5.17;1.50;;;;;;;22.44;26.98;99274.44;1690960;84;21003;-60
2021/05/31 11:12:30;;;;;;;3.45;1.32;;;;;;;22.44;26.98;99274.44;1691235;84;21027;-59
2021/05/31 11:15:12;;;;;;;2.30;1.22;;;;;;;22.44;27.56;99271.19;1683590;84;21209;-58
2021/05/31 11:17:51;;;;;;;1.65;1.07;;;;;;;22.31;28.08;99267.50;1686990;84;21051;-60
2021/05/31 11:20:21;;;;;;;2.30;1.20;;;;;;;22.31;28.08;99267.50;1676788;84;21563;-58
2021/05/31 11:23:02;;;;;;;3.77;1.55;;;;;;;22.31;27.85;99268.86;1690229;84;20935;-60
2021/05/31 11:25:30;;;;;;;2.80;0.98;;;;;;;22.28;27.29;99259.87;1640530;87;21162;-58
2021/05/31 11:28:02;;;;;;;5.05;1.25;;;;;;;22.16;27.03;99264.56;1691003;84;21069;-60
2021/05/31 11:30:32;;;;;;;1.42;1.00;;;;;;;22.06;27.36;99251.70;1696218;82;21055;-61
2021/05/31 11:33:03;;;;;;;1.37;0.78;;;;;;;22.00;26.12;99245.13;1720128;83;21055;-58
2021/05/31 11:35:31;;;;;;;2.92;0.80;;;;;;;22.00;26.12;99245.13;1721669;83;21154;-60
2021/05/31 11:37:58;;;;;;;1.52;0.88;;;;;;;22.16;26.80;99259.70;1718747;81;20920;-58
2021/05/31 11:40:35;;;;;;;1.50;1.10;;;;;;;22.16;26.80;99259.70;1716802;83;21085;-62
2021/05/31 11:43:04;;;;;;;4.25;1.20;;;;;;;22.10;25.48;99256.09;1708938;83;20995;-60
2021/05/31 11:45:36;;;;;;;2.35;0.90;;;;;;;22.10;25.48;99256.09;1705280;81;21090;-62
2021/05/31 11:48:19;;;;;;;4.15;1.00;;;;;;;22.13;26.06;99246.13;1712294;83;21577;-61
2021/05/31 11:50:47;;;;;;;2.98;0.82;;;;;;;22.13;26.06;99246.13;1717546;83;21095;-59
2021/05/31 11:53:16;;;;;;;4.35;1.10;;;;;;;22.09;26.09;99253.92;1720989;81;21067;-60
2021/05/31 11:55:45;;;;;;;2.30;1.05;;;;;;;21.88;25.56;99253.34;1717797;83;21028;-62
2021/05/31 11:58:12;;;;;;;4.17;3.30;;;;;;;21.53;25.42;99256.84;1722376;83;21037;-62
2021/05/31 12:00:42;;;;;;;4.42;1.20;;;;;;;21.39;25.84;99242.81;1718557;82;21098;-62